sensor_id;sensor_type;location;lat;lon;timestamp;temperature;humidity
30150;DHT22;16962;48.646;9.026;2023-07-29T00:00:07;15.70;99.90
30150;DHT22;16962;48.646;9.026;2023-07-29T00:02:55;15.70;99.90
30150;DHT22;16962;48.646;9.026;2023-07-29T00:05:43;15.70;99.90
30150;DHT22;16962;48.646;9.026;2023-07-29T00:08:30;15.70;99.90
30150;DHT22;16962;48.646;9.026;2023-07-29T00:11:18;15.80;99.90
30150;DHT22;16962;48.646;9.026;2023-07-29T00:14:05;15.70;99.90
30150;DHT22;16962;48.646;9.026;2023-07-29T00:16:53;15.70;99.90
30150;DHT22;16962;48.646;9.026;2023-07-29T00:19:40;15.60;99.90
30150;DHT22;16962;48.646;9.026;2023-07-29T00:22:32;15.60;99.90
30150;DHT22;16962;48.646;9.026;2023-07-29T00:25:20;15.60;99.90
30150;DHT22;16962;48.646;9.026;2023-07-29T00:28:08;15.50;99.90
30150;DHT22;16962;48.646;9.026;2023-07-29T00:30:55;15.60;99.90
30150;DHT22;16962;48.646;9.026;2023-07-29T00:33:43;15.60;99.90
30150;DHT22;16962;48.646;9.026;2023-07-29T00:36:31;15.60;99.90
30150;DHT22;16962;48.646;9.026;2023-07-29T00:39:18;15.60;99.90
30150;DHT22;16962;48.646;9.026;2023-07-29T00:42:06;15.60;99.90
30150;DHT22;16962;48.646;9.026;2023-07-29T00:45:01;15.60;99.90
30150;DHT22;16962;48.646;9.026;2023-07-29T00:47:48;15.60;99.90
30150;DHT22;16962;48.646;9.026;2023-07-29T00:50:36;15.60;99.90
30150;DHT22;16962;48.646;9.026;2023-07-29T00:53:26;15.70;99.90
30150;DHT22;16962;48.646;9.026;2023-07-29T00:56:13;15.60;99.90
30150;DHT22;16962;48.646;9.026;2023-07-29T00:59:03;15.60;99.90
30150;DHT22;16962;48.646;9.026;2023-07-29T01:01:51;15.60;99.90
30150;DHT22;16962;48.646;9.026;2023-07-29T01:04:41;15.60;99.90
30150;DHT22;16962;48.646;9.026;2023-07-29T01:08:06;15.70;99.90
30150;DHT22;16962;48.646;9.026;2023-07-29T01:13:55;15.60;99.90
30150;DHT22;16962;48.646;9.026;2023-07-29T01:16:52;15.60;99.90
30150;DHT22;16962;48.646;9.026;2023-07-29T01:22:45;15.60;99.90
30150;DHT22;16962;48.646;9.026;2023-07-29T01:25:38;15.60;99.90
30150;DHT22;16962;48.646;9.026;2023-07-29T01:28:27;15.70;99.90
30150;DHT22;16962;48.646;9.026;2023-07-29T01:34:26;15.60;99.90
30150;DHT22;16962;48.646;9.026;2023-07-29T01:37:19;15.60;99.90
30150;DHT22;16962;48.646;9.026;2023-07-29T01:40:08;15.50;99.90
30150;DHT22;16962;48.646;9.026;2023-07-29T01:42:57;15.50;99.90
30150;DHT22;16962;48.646;9.026;2023-07-29T01:45:44;15.40;99.90
30150;DHT22;16962;48.646;9.026;2023-07-29T01:48:34;15.40;99.90
30150;DHT22;16962;48.646;9.026;2023-07-29T01:51:22;15.40;99.90
30150;DHT22;16962;48.646;9.026;2023-07-29T01:54:18;15.40;99.90
30150;DHT22;16962;48.646;9.026;2023-07-29T01:57:08;15.40;99.90
30150;DHT22;16962;48.646;9.026;2023-07-29T02:00:13;15.40;99.90
30150;DHT22;16962;48.646;9.026;2023-07-29T02:03:00;15.50;99.90
30150;DHT22;16962;48.646;9.026;2023-07-29T02:05:49;15.60;99.90
30150;DHT22;16962;48.646;9.026;2023-07-29T02:08:40;15.60;99.90
30150;DHT22;16962;48.646;9.026;2023-07-29T02:11:28;15.50;99.90
30150;DHT22;16962;48.646;9.026;2023-07-29T02:14:15;15.50;99.90
30150;DHT22;16962;48.646;9.026;2023-07-29T02:19:39;15.40;99.90
30150;DHT22;16962;48.646;9.026;2023-07-29T02:22:29;15.30;99.90
30150;DHT22;16962;48.646;9.026;2023-07-29T02:25:26;15.30;99.90
30150;DHT22;16962;48.646;9.026;2023-07-29T02:28:18;15.30;99.90
30150;DHT22;16962;48.646;9.026;2023-07-29T02:31:24;15.40;99.90
30150;DHT22;16962;48.646;9.026;2023-07-29T02:34:13;15.40;99.90
30150;DHT22;16962;48.646;9.026;2023-07-29T02:37:01;15.40;99.90
30150;DHT22;16962;48.646;9.026;2023-07-29T02:39:48;15.40;99.90
30150;DHT22;16962;48.646;9.026;2023-07-29T02:42:36;15.40;99.90
30150;DHT22;16962;48.646;9.026;2023-07-29T02:45:29;15.40;99.90
30150;DHT22;16962;48.646;9.026;2023-07-29T02:48:16;15.40;99.90
30150;DHT22;16962;48.646;9.026;2023-07-29T02:51:07;15.50;99.90
30150;DHT22;16962;48.646;9.026;2023-07-29T02:53:57;15.50;99.90
30150;DHT22;16962;48.646;9.026;2023-07-29T02:56:52;15.50;99.90
30150;DHT22;16962;48.646;9.026;2023-07-29T02:59:45;15.50;99.90
30150;DHT22;16962;48.646;9.026;2023-07-29T03:02:36;15.50;99.90
30150;DHT22;16962;48.646;9.026;2023-07-29T03:05:29;15.50;99.90
30150;DHT22;16962;48.646;9.026;2023-07-29T03:08:17;15.50;99.90
30150;DHT22;16962;48.646;9.026;2023-07-29T03:11:14;15.50;99.90
30150;DHT22;16962;48.646;9.026;2023-07-29T03:14:02;15.50;99.90
30150;DHT22;16962;48.646;9.026;2023-07-29T03:16:49;15.50;99.90
30150;DHT22;16962;48.646;9.026;2023-07-29T03:19:43;15.50;99.90
30150;DHT22;16962;48.646;9.026;2023-07-29T03:22:32;15.60;99.90
30150;DHT22;16962;48.646;9.026;2023-07-29T03:25:22;15.60;99.90
30150;DHT22;16962;48.646;9.026;2023-07-29T03:28:12;15.60;99.90
30150;DHT22;16962;48.646;9.026;2023-07-29T03:31:00;15.60;99.90
30150;DHT22;16962;48.646;9.026;2023-07-29T03:33:54;15.60;99.90
30150;DHT22;16962;48.646;9.026;2023-07-29T03:36:41;15.70;99.90
30150;DHT22;16962;48.646;9.026;2023-07-29T03:39:29;15.70;99.90
30150;DHT22;16962;48.646;9.026;2023-07-29T03:42:27;15.80;99.90
30150;DHT22;16962;48.646;9.026;2023-07-29T03:45:16;15.80;99.90
30150;DHT22;16962;48.646;9.026;2023-07-29T03:48:06;15.80;99.90
30150;DHT22;16962;48.646;9.026;2023-07-29T03:50:58;15.90;99.90
30150;DHT22;16962;48.646;9.026;2023-07-29T03:53:48;15.90;99.90
30150;DHT22;16962;48.646;9.026;2023-07-29T03:56:36;16.00;99.90
30150;DHT22;16962;48.646;9.026;2023-07-29T03:59:23;16.10;99.90
30150;DHT22;16962;48.646;9.026;2023-07-29T04:02:10;16.10;99.90
30150;DHT22;16962;48.646;9.026;2023-07-29T04:04:57;16.10;99.90
30150;DHT22;16962;48.646;9.026;2023-07-29T04:07:45;16.30;99.90
30150;DHT22;16962;48.646;9.026;2023-07-29T04:10:32;16.30;99.90
30150;DHT22;16962;48.646;9.026;2023-07-29T04:13:19;16.30;99.90
30150;DHT22;16962;48.646;9.026;2023-07-29T04:16:10;16.30;99.90
30150;DHT22;16962;48.646;9.026;2023-07-29T04:18:59;16.40;99.90
30150;DHT22;16962;48.646;9.026;2023-07-29T04:21:46;16.40;99.90
30150;DHT22;16962;48.646;9.026;2023-07-29T04:24:34;16.30;99.90
30150;DHT22;16962;48.646;9.026;2023-07-29T04:27:21;16.30;99.90
30150;DHT22;16962;48.646;9.026;2023-07-29T04:30:08;16.30;99.90
30150;DHT22;16962;48.646;9.026;2023-07-29T04:32:59;16.20;99.90
30150;DHT22;16962;48.646;9.026;2023-07-29T04:35:46;16.10;99.90
30150;DHT22;16962;48.646;9.026;2023-07-29T04:38:34;16.00;99.90
30150;DHT22;16962;48.646;9.026;2023-07-29T04:41:21;16.00;99.90
30150;DHT22;16962;48.646;9.026;2023-07-29T04:44:09;16.00;99.90
30150;DHT22;16962;48.646;9.026;2023-07-29T04:46:56;16.00;99.90
30150;DHT22;16962;48.646;9.026;2023-07-29T04:49:44;16.00;99.90
30150;DHT22;16962;48.646;9.026;2023-07-29T04:52:31;16.00;99.90
30150;DHT22;16962;48.646;9.026;2023-07-29T04:55:19;16.00;99.90
30150;DHT22;16962;48.646;9.026;2023-07-29T04:58:06;16.00;99.90
30150;DHT22;16962;48.646;9.026;2023-07-29T05:00:54;16.00;99.90
30150;DHT22;16962;48.646;9.026;2023-07-29T05:03:47;15.90;99.90
30150;DHT22;16962;48.646;9.026;2023-07-29T05:06:36;15.90;99.90
30150;DHT22;16962;48.646;9.026;2023-07-29T05:09:24;15.90;99.90
30150;DHT22;16962;48.646;9.026;2023-07-29T05:12:14;15.90;99.90
30150;DHT22;16962;48.646;9.026;2023-07-29T05:15:01;16.00;99.90
30150;DHT22;16962;48.646;9.026;2023-07-29T05:17:49;16.00;99.90
30150;DHT22;16962;48.646;9.026;2023-07-29T05:20:42;16.10;99.90
30150;DHT22;16962;48.646;9.026;2023-07-29T05:23:29;16.20;99.90
30150;DHT22;16962;48.646;9.026;2023-07-29T05:26:17;16.30;99.90
30150;DHT22;16962;48.646;9.026;2023-07-29T05:29:06;16.30;99.90
30150;DHT22;16962;48.646;9.026;2023-07-29T05:31:54;16.40;99.90
30150;DHT22;16962;48.646;9.026;2023-07-29T05:34:41;16.50;99.90
30150;DHT22;16962;48.646;9.026;2023-07-29T05:37:31;16.60;99.90
30150;DHT22;16962;48.646;9.026;2023-07-29T05:40:18;16.60;99.90
30150;DHT22;16962;48.646;9.026;2023-07-29T05:43:06;16.70;99.90
30150;DHT22;16962;48.646;9.026;2023-07-29T05:45:53;16.70;99.90
30150;DHT22;16962;48.646;9.026;2023-07-29T05:48:43;16.80;99.90
30150;DHT22;16962;48.646;9.026;2023-07-29T05:51:34;16.80;99.90
30150;DHT22;16962;48.646;9.026;2023-07-29T05:54:21;16.90;99.90
30150;DHT22;16962;48.646;9.026;2023-07-29T05:57:10;17.00;99.90
30150;DHT22;16962;48.646;9.026;2023-07-29T05:59:57;17.10;99.90
30150;DHT22;16962;48.646;9.026;2023-07-29T06:02:44;17.20;99.90
30150;DHT22;16962;48.646;9.026;2023-07-29T06:05:32;17.20;99.90
30150;DHT22;16962;48.646;9.026;2023-07-29T06:08:19;17.30;99.90
30150;DHT22;16962;48.646;9.026;2023-07-29T06:11:06;17.30;99.90
30150;DHT22;16962;48.646;9.026;2023-07-29T06:13:54;17.40;99.90
30150;DHT22;16962;48.646;9.026;2023-07-29T06:16:41;17.50;99.90
30150;DHT22;16962;48.646;9.026;2023-07-29T06:19:31;17.60;99.90
30150;DHT22;16962;48.646;9.026;2023-07-29T06:22:18;17.70;99.90
30150;DHT22;16962;48.646;9.026;2023-07-29T06:25:06;17.80;99.90
30150;DHT22;16962;48.646;9.026;2023-07-29T06:27:53;17.80;99.90
30150;DHT22;16962;48.646;9.026;2023-07-29T06:30:40;17.80;99.90
30150;DHT22;16962;48.646;9.026;2023-07-29T06:33:28;17.80;99.90
30150;DHT22;16962;48.646;9.026;2023-07-29T06:36:16;17.80;99.90
30150;DHT22;16962;48.646;9.026;2023-07-29T06:39:03;17.60;99.90
30150;DHT22;16962;48.646;9.026;2023-07-29T06:41:51;17.30;99.90
30150;DHT22;16962;48.646;9.026;2023-07-29T06:44:41;17.20;99.90
30150;DHT22;16962;48.646;9.026;2023-07-29T06:47:29;17.00;99.90
30150;DHT22;16962;48.646;9.026;2023-07-29T06:50:16;17.00;99.90
30150;DHT22;16962;48.646;9.026;2023-07-29T06:53:05;16.90;99.90
30150;DHT22;16962;48.646;9.026;2023-07-29T06:55:54;16.90;99.90
30150;DHT22;16962;48.646;9.026;2023-07-29T06:58:43;16.90;99.90
30150;DHT22;16962;48.646;9.026;2023-07-29T07:01:30;16.90;99.90
30150;DHT22;16962;48.646;9.026;2023-07-29T07:04:20;16.90;99.90
30150;DHT22;16962;48.646;9.026;2023-07-29T07:07:07;16.80;99.90
30150;DHT22;16962;48.646;9.026;2023-07-29T07:09:57;16.80;99.90
30150;DHT22;16962;48.646;9.026;2023-07-29T07:12:48;16.70;99.90
30150;DHT22;16962;48.646;9.026;2023-07-29T07:15:38;16.80;99.90
30150;DHT22;16962;48.646;9.026;2023-07-29T07:18:25;16.70;99.90
30150;DHT22;16962;48.646;9.026;2023-07-29T07:21:19;16.70;99.90
30150;DHT22;16962;48.646;9.026;2023-07-29T07:24:06;16.70;99.90
30150;DHT22;16962;48.646;9.026;2023-07-29T07:26:54;16.80;99.90
30150;DHT22;16962;48.646;9.026;2023-07-29T07:29:41;16.90;99.90
30150;DHT22;16962;48.646;9.026;2023-07-29T07:32:28;17.10;99.90
30150;DHT22;16962;48.646;9.026;2023-07-29T07:35:18;17.10;99.90
30150;DHT22;16962;48.646;9.026;2023-07-29T07:38:06;17.10;99.90
30150;DHT22;16962;48.646;9.026;2023-07-29T07:40:59;17.10;99.90
30150;DHT22;16962;48.646;9.026;2023-07-29T07:43:46;17.20;99.90
30150;DHT22;16962;48.646;9.026;2023-07-29T07:46:36;17.30;99.90
30150;DHT22;16962;48.646;9.026;2023-07-29T07:49:24;17.30;99.90
30150;DHT22;16962;48.646;9.026;2023-07-29T07:52:14;17.40;99.90
30150;DHT22;16962;48.646;9.026;2023-07-29T07:55:02;17.60;99.90
30150;DHT22;16962;48.646;9.026;2023-07-29T07:57:52;17.70;99.90
30150;DHT22;16962;48.646;9.026;2023-07-29T08:00:44;17.80;99.90
30150;DHT22;16962;48.646;9.026;2023-07-29T08:03:31;17.90;99.90
30150;DHT22;16962;48.646;9.026;2023-07-29T08:06:21;18.00;99.90
30150;DHT22;16962;48.646;9.026;2023-07-29T08:09:11;18.10;99.90
30150;DHT22;16962;48.646;9.026;2023-07-29T08:11:58;18.20;99.90
30150;DHT22;16962;48.646;9.026;2023-07-29T08:14:46;18.40;99.90
30150;DHT22;16962;48.646;9.026;2023-07-29T08:17:35;18.60;99.90
30150;DHT22;16962;48.646;9.026;2023-07-29T08:20:23;18.70;99.90
30150;DHT22;16962;48.646;9.026;2023-07-29T08:23:10;18.80;99.90
30150;DHT22;16962;48.646;9.026;2023-07-29T08:26:00;18.90;99.90
30150;DHT22;16962;48.646;9.026;2023-07-29T08:28:54;19.00;99.90
30150;DHT22;16962;48.646;9.026;2023-07-29T08:31:41;19.10;99.90
30150;DHT22;16962;48.646;9.026;2023-07-29T08:34:29;19.50;99.90
30150;DHT22;16962;48.646;9.026;2023-07-29T08:37:17;19.80;99.90
30150;DHT22;16962;48.646;9.026;2023-07-29T08:40:18;20.00;99.90
30150;DHT22;16962;48.646;9.026;2023-07-29T08:43:06;20.20;99.90
30150;DHT22;16962;48.646;9.026;2023-07-29T08:45:54;20.20;99.90
30150;DHT22;16962;48.646;9.026;2023-07-29T08:48:45;20.20;99.90
30150;DHT22;16962;48.646;9.026;2023-07-29T08:51:33;20.40;99.90
30150;DHT22;16962;48.646;9.026;2023-07-29T08:54:21;20.80;99.90
30150;DHT22;16962;48.646;9.026;2023-07-29T08:57:13;21.70;99.90
30150;DHT22;16962;48.646;9.026;2023-07-29T09:00:02;22.20;99.90
30150;DHT22;16962;48.646;9.026;2023-07-29T09:02:52;21.70;99.90
30150;DHT22;16962;48.646;9.026;2023-07-29T09:05:41;21.30;1.00
30150;DHT22;16962;48.646;9.026;2023-07-29T09:08:32;21.00;99.90
30150;DHT22;16962;48.646;9.026;2023-07-29T09:15:30;21.10;52.50
30150;DHT22;16962;48.646;9.026;2023-07-29T09:18:41;21.20;99.90
30150;DHT22;16962;48.646;9.026;2023-07-29T09:21:52;21.50;1.00
30150;DHT22;16962;48.646;9.026;2023-07-29T09:25:00;22.40;99.90
30150;DHT22;16962;48.646;9.026;2023-07-29T09:27:50;22.70;13.30
30150;DHT22;16962;48.646;9.026;2023-07-29T09:30:51;22.20;1.00
30150;DHT22;16962;48.646;9.026;2023-07-29T09:33:39;22.00;1.00
30150;DHT22;16962;48.646;9.026;2023-07-29T09:36:40;21.80;1.00
30150;DHT22;16962;48.646;9.026;2023-07-29T09:39:28;21.80;44.10
30150;DHT22;16962;48.646;9.026;2023-07-29T09:42:22;22.40;1.00
30150;DHT22;16962;48.646;9.026;2023-07-29T09:45:23;22.50;99.90
30150;DHT22;16962;48.646;9.026;2023-07-29T09:48:11;22.60;99.90
30150;DHT22;16962;48.646;9.026;2023-07-29T09:50:58;22.50;99.90
30150;DHT22;16962;48.646;9.026;2023-07-29T09:53:49;22.70;99.90
30150;DHT22;16962;48.646;9.026;2023-07-29T09:56:41;23.10;99.90
30150;DHT22;16962;48.646;9.026;2023-07-29T09:59:35;23.70;1.00
30150;DHT22;16962;48.646;9.026;2023-07-29T10:02:22;24.40;99.90
30150;DHT22;16962;48.646;9.026;2023-07-29T10:05:12;24.30;99.90
30150;DHT22;16962;48.646;9.026;2023-07-29T10:08:00;24.10;58.30
30150;DHT22;16962;48.646;9.026;2023-07-29T10:10:52;24.40;51.20
30150;DHT22;16962;48.646;9.026;2023-07-29T10:13:41;24.50;1.00
30150;DHT22;16962;48.646;9.026;2023-07-29T10:16:42;25.20;1.00
30150;DHT22;16962;48.646;9.026;2023-07-29T10:19:32;24.70;1.00
30150;DHT22;16962;48.646;9.026;2023-07-29T10:22:21;24.90;1.00
30150;DHT22;16962;48.646;9.026;2023-07-29T10:25:21;25.00;99.90
30150;DHT22;16962;48.646;9.026;2023-07-29T10:28:12;24.90;99.90
30150;DHT22;16962;48.646;9.026;2023-07-29T10:31:00;25.70;99.90
30150;DHT22;16962;48.646;9.026;2023-07-29T10:33:50;26.20;99.90
30150;DHT22;16962;48.646;9.026;2023-07-29T10:36:37;26.80;99.90
30150;DHT22;16962;48.646;9.026;2023-07-29T10:39:26;27.30;99.90
30150;DHT22;16962;48.646;9.026;2023-07-29T10:42:14;27.20;99.90
30150;DHT22;16962;48.646;9.026;2023-07-29T10:45:23;27.10;99.90
30150;DHT22;16962;48.646;9.026;2023-07-29T10:48:11;26.80;99.90
30150;DHT22;16962;48.646;9.026;2023-07-29T10:54:14;27.20;99.90
30150;DHT22;16962;48.646;9.026;2023-07-29T10:57:04;27.00;99.90
30150;DHT22;16962;48.646;9.026;2023-07-29T10:59:56;26.80;99.90
30150;DHT22;16962;48.646;9.026;2023-07-29T11:02:58;26.80;99.90
30150;DHT22;16962;48.646;9.026;2023-07-29T11:05:49;26.80;99.90
30150;DHT22;16962;48.646;9.026;2023-07-29T11:08:39;26.30;99.90
30150;DHT22;16962;48.646;9.026;2023-07-29T11:11:28;26.70;99.90
30150;DHT22;16962;48.646;9.026;2023-07-29T11:14:16;26.60;99.90
30150;DHT22;16962;48.646;9.026;2023-07-29T11:17:05;26.60;99.90
30150;DHT22;16962;48.646;9.026;2023-07-29T11:19:53;25.90;99.90
30150;DHT22;16962;48.646;9.026;2023-07-29T11:22:42;25.50;99.90
30150;DHT22;16962;48.646;9.026;2023-07-29T11:25:32;25.60;99.90
30150;DHT22;16962;48.646;9.026;2023-07-29T11:28:23;25.60;99.90
30150;DHT22;16962;48.646;9.026;2023-07-29T11:31:14;25.60;99.90
30150;DHT22;16962;48.646;9.026;2023-07-29T11:34:07;25.70;99.90
30150;DHT22;16962;48.646;9.026;2023-07-29T11:36:54;26.60;99.90
30150;DHT22;16962;48.646;9.026;2023-07-29T11:39:44;27.00;99.90
30150;DHT22;16962;48.646;9.026;2023-07-29T11:42:33;27.30;99.90
30150;DHT22;16962;48.646;9.026;2023-07-29T11:45:22;26.80;99.90
30150;DHT22;16962;48.646;9.026;2023-07-29T11:48:32;26.70;99.90
30150;DHT22;16962;48.646;9.026;2023-07-29T11:51:20;26.90;99.90
30150;DHT22;16962;48.646;9.026;2023-07-29T11:54:08;25.80;99.90
30150;DHT22;16962;48.646;9.026;2023-07-29T11:56:56;26.00;99.90
30150;DHT22;16962;48.646;9.026;2023-07-29T11:59:46;26.40;99.90
30150;DHT22;16962;48.646;9.026;2023-07-29T12:02:38;26.90;99.90
30150;DHT22;16962;48.646;9.026;2023-07-29T12:05:26;26.40;99.90
30150;DHT22;16962;48.646;9.026;2023-07-29T12:08:14;26.20;99.90
30150;DHT22;16962;48.646;9.026;2023-07-29T12:11:02;26.20;99.90
30150;DHT22;16962;48.646;9.026;2023-07-29T12:13:53;27.20;99.90
30150;DHT22;16962;48.646;9.026;2023-07-29T12:16:43;28.00;99.90
30150;DHT22;16962;48.646;9.026;2023-07-29T12:19:38;28.00;97.40
30150;DHT22;16962;48.646;9.026;2023-07-29T12:22:25;26.50;93.60
30150;DHT22;16962;48.646;9.026;2023-07-29T12:25:13;26.10;90.90
30150;DHT22;16962;48.646;9.026;2023-07-29T12:28:06;26.50;89.70
30150;DHT22;16962;48.646;9.026;2023-07-29T12:30:59;27.60;91.40
30150;DHT22;16962;48.646;9.026;2023-07-29T12:33:47;28.60;91.30
30150;DHT22;16962;48.646;9.026;2023-07-29T12:36:45;29.20;68.90
30150;DHT22;16962;48.646;9.026;2023-07-29T12:39:40;28.70;60.60
30150;DHT22;16962;48.646;9.026;2023-07-29T12:42:28;28.50;54.00
30150;DHT22;16962;48.646;9.026;2023-07-29T12:45:16;28.20;49.30
30150;DHT22;16962;48.646;9.026;2023-07-29T12:48:05;28.20;48.30
30150;DHT22;16962;48.646;9.026;2023-07-29T12:50:55;28.00;49.30
30150;DHT22;16962;48.646;9.026;2023-07-29T12:53:42;27.80;46.00
30150;DHT22;16962;48.646;9.026;2023-07-29T12:56:31;26.50;39.20
30150;DHT22;16962;48.646;9.026;2023-07-29T12:59:19;25.70;41.30
30150;DHT22;16962;48.646;9.026;2023-07-29T13:02:06;25.70;43.70
30150;DHT22;16962;48.646;9.026;2023-07-29T13:04:54;25.70;41.10
30150;DHT22;16962;48.646;9.026;2023-07-29T13:07:42;25.60;41.90
30150;DHT22;16962;48.646;9.026;2023-07-29T13:10:30;25.60;36.70
30150;DHT22;16962;48.646;9.026;2023-07-29T13:13:18;25.60;34.60
30150;DHT22;16962;48.646;9.026;2023-07-29T13:16:06;25.80;37.00
30150;DHT22;16962;48.646;9.026;2023-07-29T13:18:54;25.70;34.90
30150;DHT22;16962;48.646;9.026;2023-07-29T13:21:41;25.40;41.00
30150;DHT22;16962;48.646;9.026;2023-07-29T13:24:29;25.60;41.40
30150;DHT22;16962;48.646;9.026;2023-07-29T13:27:16;26.20;38.20
30150;DHT22;16962;48.646;9.026;2023-07-29T13:30:05;26.90;34.70
30150;DHT22;16962;48.646;9.026;2023-07-29T13:32:53;27.20;30.30
30150;DHT22;16962;48.646;9.026;2023-07-29T13:35:40;27.10;27.10
30150;DHT22;16962;48.646;9.026;2023-07-29T13:38:30;26.70;26.70
30150;DHT22;16962;48.646;9.026;2023-07-29T13:41:18;26.60;25.80
30150;DHT22;16962;48.646;9.026;2023-07-29T13:44:05;26.20;22.10
30150;DHT22;16962;48.646;9.026;2023-07-29T13:46:52;25.90;23.80
30150;DHT22;16962;48.646;9.026;2023-07-29T13:49:40;26.00;23.80
30150;DHT22;16962;48.646;9.026;2023-07-29T13:52:29;26.20;22.50
30150;DHT22;16962;48.646;9.026;2023-07-29T13:55:18;25.70;22.10
30150;DHT22;16962;48.646;9.026;2023-07-29T13:58:08;25.30;20.20
30150;DHT22;16962;48.646;9.026;2023-07-29T14:00:55;25.00;23.20
30150;DHT22;16962;48.646;9.026;2023-07-29T14:03:49;25.00;23.40
30150;DHT22;16962;48.646;9.026;2023-07-29T14:06:36;24.90;23.60
30150;DHT22;16962;48.646;9.026;2023-07-29T14:09:33;24.60;22.00
30150;DHT22;16962;48.646;9.026;2023-07-29T14:12:22;24.60;28.40
30150;DHT22;16962;48.646;9.026;2023-07-29T14:15:10;24.90;25.30
30150;DHT22;16962;48.646;9.026;2023-07-29T14:17:58;24.80;21.90
30150;DHT22;16962;48.646;9.026;2023-07-29T14:20:45;24.30;23.50
30150;DHT22;16962;48.646;9.026;2023-07-29T14:23:36;24.50;26.30
30150;DHT22;16962;48.646;9.026;2023-07-29T14:26:23;24.70;25.70
30150;DHT22;16962;48.646;9.026;2023-07-29T14:29:11;25.30;22.20
30150;DHT22;16962;48.646;9.026;2023-07-29T14:31:58;26.60;19.10
30150;DHT22;16962;48.646;9.026;2023-07-29T14:34:45;26.40;16.80
30150;DHT22;16962;48.646;9.026;2023-07-29T14:37:33;25.40;11.90
30150;DHT22;16962;48.646;9.026;2023-07-29T14:40:21;25.00;16.40
30150;DHT22;16962;48.646;9.026;2023-07-29T14:43:08;24.70;16.10
30150;DHT22;16962;48.646;9.026;2023-07-29T14:45:56;24.70;17.60
30150;DHT22;16962;48.646;9.026;2023-07-29T14:48:43;24.60;19.60
30150;DHT22;16962;48.646;9.026;2023-07-29T14:51:31;24.50;19.00
30150;DHT22;16962;48.646;9.026;2023-07-29T14:54:20;24.30;18.60
30150;DHT22;16962;48.646;9.026;2023-07-29T14:57:09;24.60;19.70
30150;DHT22;16962;48.646;9.026;2023-07-29T14:59:59;25.00;19.10
30150;DHT22;16962;48.646;9.026;2023-07-29T15:02:46;24.50;15.00
30150;DHT22;16962;48.646;9.026;2023-07-29T15:05:34;24.10;29.20
30150;DHT22;16962;48.646;9.026;2023-07-29T15:08:22;24.00;21.20
30150;DHT22;16962;48.646;9.026;2023-07-29T15:11:14;24.10;23.40
30150;DHT22;16962;48.646;9.026;2023-07-29T15:14:02;24.10;22.20
30150;DHT22;16962;48.646;9.026;2023-07-29T15:16:51;24.20;22.90
30150;DHT22;16962;48.646;9.026;2023-07-29T15:19:39;24.20;23.20
30150;DHT22;16962;48.646;9.026;2023-07-29T15:22:26;24.20;25.80
30150;DHT22;16962;48.646;9.026;2023-07-29T15:25:14;24.20;29.10
30150;DHT22;16962;48.646;9.026;2023-07-29T15:28:01;24.30;28.10
30150;DHT22;16962;48.646;9.026;2023-07-29T15:30:48;24.30;27.50
30150;DHT22;16962;48.646;9.026;2023-07-29T15:33:36;24.40;30.10
30150;DHT22;16962;48.646;9.026;2023-07-29T15:36:23;24.80;28.90
30150;DHT22;16962;48.646;9.026;2023-07-29T15:39:13;25.20;25.80
30150;DHT22;16962;48.646;9.026;2023-07-29T15:42:01;25.70;23.20
30150;DHT22;16962;48.646;9.026;2023-07-29T15:44:51;26.10;17.50
30150;DHT22;16962;48.646;9.026;2023-07-29T15:47:39;26.20;15.30
30150;DHT22;16962;48.646;9.026;2023-07-29T15:50:29;26.40;12.50
30150;DHT22;16962;48.646;9.026;2023-07-29T15:53:16;26.30;10.10
30150;DHT22;16962;48.646;9.026;2023-07-29T15:56:04;25.30;9.20
30150;DHT22;16962;48.646;9.026;2023-07-29T15:58:51;25.10;8.60
30150;DHT22;16962;48.646;9.026;2023-07-29T16:01:39;24.60;11.90
30150;DHT22;16962;48.646;9.026;2023-07-29T16:04:26;24.50;14.80
30150;DHT22;16962;48.646;9.026;2023-07-29T16:07:14;24.70;15.30
30150;DHT22;16962;48.646;9.026;2023-07-29T16:10:01;24.30;15.00
30150;DHT22;16962;48.646;9.026;2023-07-29T16:12:49;24.00;16.30
30150;DHT22;16962;48.646;9.026;2023-07-29T16:15:36;24.00;19.70
30150;DHT22;16962;48.646;9.026;2023-07-29T16:18:24;24.70;19.80
30150;DHT22;16962;48.646;9.026;2023-07-29T16:21:18;25.70;15.40
30150;DHT22;16962;48.646;9.026;2023-07-29T16:24:05;26.10;11.30
30150;DHT22;16962;48.646;9.026;2023-07-29T16:26:54;26.00;9.90
30150;DHT22;16962;48.646;9.026;2023-07-29T16:29:41;25.90;9.00
30150;DHT22;16962;48.646;9.026;2023-07-29T16:32:29;25.90;8.40
30150;DHT22;16962;48.646;9.026;2023-07-29T16:35:16;26.00;7.30
30150;DHT22;16962;48.646;9.026;2023-07-29T16:38:05;26.00;7.60
30150;DHT22;16962;48.646;9.026;2023-07-29T16:40:52;25.90;4.90
30150;DHT22;16962;48.646;9.026;2023-07-29T16:43:54;25.70;4.40
30150;DHT22;16962;48.646;9.026;2023-07-29T16:46:43;25.10;4.30
30150;DHT22;16962;48.646;9.026;2023-07-29T16:49:32;24.50;11.70
30150;DHT22;16962;48.646;9.026;2023-07-29T16:52:19;24.10;15.20
30150;DHT22;16962;48.646;9.026;2023-07-29T16:55:07;23.80;19.70
30150;DHT22;16962;48.646;9.026;2023-07-29T16:57:56;23.50;24.70
30150;DHT22;16962;48.646;9.026;2023-07-29T17:00:43;23.20;31.60
30150;DHT22;16962;48.646;9.026;2023-07-29T17:03:30;22.80;87.30
30150;DHT22;16962;48.646;9.026;2023-07-29T17:06:22;22.10;99.90
30150;DHT22;16962;48.646;9.026;2023-07-29T17:09:10;19.70;99.90
30150;DHT22;16962;48.646;9.026;2023-07-29T17:11:57;18.40;99.90
30150;DHT22;16962;48.646;9.026;2023-07-29T17:14:47;17.60;41.70
30150;DHT22;16962;48.646;9.026;2023-07-29T17:17:35;17.40;99.90
30150;DHT22;16962;48.646;9.026;2023-07-29T17:20:25;17.60;99.90
30150;DHT22;16962;48.646;9.026;2023-07-29T17:23:12;17.80;99.90
30150;DHT22;16962;48.646;9.026;2023-07-29T17:26:00;17.90;99.90
30150;DHT22;16962;48.646;9.026;2023-07-29T17:28:49;18.10;99.90
30150;DHT22;16962;48.646;9.026;2023-07-29T17:31:39;18.20;99.90
30150;DHT22;16962;48.646;9.026;2023-07-29T17:34:32;18.20;99.90
30150;DHT22;16962;48.646;9.026;2023-07-29T17:37:20;18.30;99.90
30150;DHT22;16962;48.646;9.026;2023-07-29T17:40:07;18.00;99.90
30150;DHT22;16962;48.646;9.026;2023-07-29T17:42:57;18.00;99.90
30150;DHT22;16962;48.646;9.026;2023-07-29T17:45:45;18.00;99.90
30150;DHT22;16962;48.646;9.026;2023-07-29T17:48:32;18.00;99.90
30150;DHT22;16962;48.646;9.026;2023-07-29T17:51:20;18.00;99.90
30150;DHT22;16962;48.646;9.026;2023-07-29T17:54:07;18.00;99.90
30150;DHT22;16962;48.646;9.026;2023-07-29T17:56:55;18.00;99.90
30150;DHT22;16962;48.646;9.026;2023-07-29T17:59:43;17.90;99.90
30150;DHT22;16962;48.646;9.026;2023-07-29T18:02:33;17.80;99.90
30150;DHT22;16962;48.646;9.026;2023-07-29T18:05:21;17.80;99.90
30150;DHT22;16962;48.646;9.026;2023-07-29T18:08:09;17.80;99.90
30150;DHT22;16962;48.646;9.026;2023-07-29T18:10:56;17.90;99.90